Time;durP1;ratioP1;P1;durP2;ratioP2;P2;SDS_P1;SDS_P2;PMS_P1;PMS_P2;Temp;Humidity;BMP_temperature;BMP_pressure;BME280_temperature;BME280_humidity;BME280_pressure;Samples;Min_cycle;Max_cycle;Signal;HPM_P1;HPM_P2
2021/09/13 00:00:25;;;;;;;34.43;16.25;;;;;;;18.76;58.37;100531.58;1794715;78;21481;-61
2021/09/13 00:08:42;;;;;;;25.37;14.53;;;;;;;18.72;59.02;100531.42;1780765;79;21570;-61
2021/09/13 00:16:31;;;;;;;37.73;18.30;;;;;;;18.68;59.50;100529.89;1788677;79;20952;-62
2021/09/13 00:24:41;;;;;;;28.05;17.23;;;;;;;18.57;59.45;100526.62;1771747;78;21425;-62
2021/09/13 00:27:09;;;;;;;25.97;15.40;;;;;;;18.49;59.61;100516.32;1783067;79;21103;-62
2021/09/13 00:29:37;;;;;;;40.00;17.07;;;;;;;18.43;59.96;100513.55;1794698;78;21054;-61
2021/09/13 00:32:07;;;;;;;32.60;16.70;;;;;;;18.38;60.07;100512.14;1785087;78;21604;-62
2021/09/13 00:34:36;;;;;;;28.62;15.72;;;;;;;18.35;60.15;100509.65;1792151;78;21114;-61
2021/09/13 00:37:06;;;;;;;30.92;15.90;;;;;;;18.31;60.29;100512.59;1787404;78;21395;-61
2021/09/13 00:39:36;;;;;;;32.35;16.73;;;;;;;18.28;60.44;100508.74;1787594;78;21469;-61
2021/09/13 00:42:09;;;;;;;32.42;19.23;;;;;;;18.24;60.46;100503.16;1794882;77;21076;-56
2021/09/13 00:44:38;;;;;;;29.15;17.27;;;;;;;18.20;60.70;100507.05;1794686;79;21036;-57
2021/09/13 00:47:05;;;;;;;31.97;17.62;;;;;;;18.17;61.06;100500.02;1794708;79;21082;-57
2021/09/13 00:49:47;;;;;;;32.65;18.10;;;;;;;18.15;61.10;100503.80;1782206;78;21099;-57
2021/09/13 00:52:35;;;;;;;34.13;19.50;;;;;;;18.15;61.37;100511.47;1781418;78;21089;-57
2021/09/13 00:55:11;;;;;;;30.88;17.20;;;;;;;18.13;61.41;100508.47;1783936;79;21562;-56
2021/09/13 00:57:38;;;;;;;29.42;18.52;;;;;;;18.11;61.65;100511.78;1786389;79;21579;-62
2021/09/13 01:00:06;;;;;;;32.20;18.25;;;;;;;18.10;61.70;100505.98;1792509;78;21755;-62
2021/09/13 01:02:35;;;;;;;33.50;20.17;;;;;;;18.07;61.72;100512.47;1776694;78;21022;-61
2021/09/13 01:05:02;;;;;;;29.12;17.30;;;;;;;18.05;61.76;100509.00;1782095;78;21091;-62
2021/09/13 01:10:10;;;;;;;34.33;19.45;;;;;;;17.99;61.89;100510.27;1782137;79;21062;-58
2021/09/13 01:15:41;;;;;;;31.37;18.80;;;;;;;17.92;62.13;100517.11;1791606;78;21027;-62
2021/09/13 01:20:58;;;;;;;30.08;20.80;;;;;;;17.81;62.33;100523.27;1790590;79;21091;-62
2021/09/13 01:23:27;;;;;;;37.83;21.80;;;;;;;17.75;62.58;100523.71;1781852;79;21020;-57
2021/09/13 01:28:25;;;;;;;30.25;19.12;;;;;;;17.66;62.93;100527.92;1784481;78;21043;-61
2021/09/13 01:30:52;;;;;;;38.55;20.30;;;;;;;17.61;63.08;100527.38;1783419;78;21031;-57
2021/09/13 01:33:20;;;;;;;27.32;17.17;;;;;;;17.56;63.24;100529.03;1784100;79;21453;-59
2021/09/13 01:35:48;;;;;;;31.02;17.60;;;;;;;17.52;63.25;100534.28;1754861;79;20974;-58
2021/09/13 01:38:18;;;;;;;28.47;16.17;;;;;;;17.46;63.45;100540.98;1787928;80;21802;-62
2021/09/13 01:40:48;;;;;;;37.45;16.35;;;;;;;17.37;63.51;100552.45;1759454;78;20945;-62
2021/09/13 01:43:15;;;;;;;32.20;16.75;;;;;;;17.32;63.59;100545.09;1790576;78;21004;-62
2021/09/13 01:45:42;;;;;;;27.65;14.15;;;;;;;17.26;64.02;100543.69;1792603;78;20968;-62
2021/09/13 01:48:13;;;;;;;32.85;14.98;;;;;;;17.21;64.48;100540.89;1792307;78;21078;-62
2021/09/13 01:53:28;;;;;;;25.77;14.15;;;;;;;17.13;64.83;100540.93;1781809;78;21000;-62
2021/09/13 01:55:59;;;;;;;28.07;14.85;;;;;;;17.11;64.90;100553.67;1800100;78;21103;-61
2021/09/13 01:58:27;;;;;;;33.60;14.68;;;;;;;17.06;65.08;100538.22;1788616;80;21099;-62
2021/09/13 02:00:54;;;;;;;38.45;14.43;;;;;;;17.02;65.25;100529.91;1806385;78;21540;-62
2021/09/13 02:03:22;;;;;;;31.05;17.02;;;;;;;16.99;65.54;100529.63;1792587;78;21112;-62
2021/09/13 02:05:51;;;;;;;34.83;19.77;;;;;;;16.97;65.66;100533.39;1758894;80;21480;-62
2021/09/13 02:08:29;;;;;;;34.95;18.82;;;;;;;16.96;65.74;100531.65;1759777;80;21051;-62
2021/09/13 02:11:12;;;;;;;38.67;18.10;;;;;;;16.94;65.81;100533.59;1768772;79;21476;-62
2021/09/13 02:16:25;;;;;;;42.45;15.70;;;;;;;16.86;65.96;100541.70;1760361;79;21023;-61
2021/09/13 02:18:53;;;;;;;33.00;16.07;;;;;;;16.85;66.10;100532.34;1760618;79;21060;-62
2021/09/13 02:23:58;;;;;;;25.30;14.35;;;;;;;16.81;66.36;100530.31;1756713;79;21023;-61
2021/09/13 02:26:46;;;;;;;28.17;14.40;;;;;;;16.80;66.59;100524.98;1746640;80;21928;-61
2021/09/13 02:29:14;;;;;;;36.23;17.00;;;;;;;16.79;66.70;100533.61;1756941;79;21542;-62
2021/09/13 02:32:05;;;;;;;31.07;15.80;;;;;;;16.77;66.82;100540.97;1803075;78;21028;-62
2021/09/13 02:34:43;;;;;;;44.67;15.45;;;;;;;16.75;67.00;100534.78;1776404;78;21432;-62
2021/09/13 02:39:51;;;;;;;35.40;14.43;;;;;;;16.77;67.11;100527.42;1783199;80;21066;-63
2021/09/13 02:42:18;;;;;;;29.70;13.93;;;;;;;16.78;67.11;100532.34;1707540;81;21134;-62
2021/09/13 02:49:55;;;;;;;30.45;13.70;;;;;;;16.75;67.18;100528.02;1736417;80;21048;-63
2021/09/13 02:52:23;;;;;;;26.50;14.00;;;;;;;16.74;67.26;100534.40;1746316;80;21167;-61
2021/09/13 02:57:42;;;;;;;27.58;13.72;;;;;;;16.72;67.33;100520.95;1748640;80;21069;-62
2021/09/13 03:00:12;;;;;;;25.25;13.98;;;;;;;16.69;67.51;100529.27;1734424;80;21036;-63
2021/09/13 03:02:43;;;;;;;34.10;14.43;;;;;;;16.67;67.68;100522.20;1757935;79;21064;-62
2021/09/13 03:05:10;;;;;;;25.27;14.65;;;;;;;16.65;67.76;100525.50;1748209;80;21433;-62
2021/09/13 03:10:13;;;;;;;;;;;;;;;16.63;67.95;100520.67;1717497;81;21574;-62
2021/09/13 03:12:42;;;;;;;24.25;14.63;;;;;;;16.58;68.21;100518.28;1714628;81;20216;-63
2021/09/13 03:15:18;;;;;;;25.05;15.20;;;;;;;16.53;68.48;100525.34;1749873;80;21123;-63
2021/09/13 03:17:46;;;;;;;40.20;18.07;;;;;;;16.51;68.62;100524.56;1750845;80;21084;-62
2021/09/13 03:20:13;;;;;;;32.13;19.35;;;;;;;16.47;68.80;100520.33;1757429;80;21425;-63
2021/09/13 03:22:43;;;;;;;37.20;19.55;;;;;;;16.46;68.95;100528.02;1745747;80;21017;-63
2021/09/13 03:25:24;;;;;;;38.28;19.90;;;;;;;16.43;69.15;100526.87;1745329;80;21088;-63
2021/09/13 03:27:58;;;;;;;31.15;17.10;;;;;;;16.40;69.33;100531.13;1753645;80;21028;-61
2021/09/13 03:30:27;;;;;;;36.25;18.50;;;;;;;16.37;69.63;100529.97;1746336;80;21051;-64
2021/09/13 03:32:54;;;;;;;33.83;15.72;;;;;;;16.33;69.70;100530.17;1733796;80;21131;-61
2021/09/13 03:35:22;;;;;;;40.78;17.77;;;;;;;16.32;69.91;100531.14;1740883;80;21052;-62
2021/09/13 03:40:31;;;;;;;28.07;16.65;;;;;;;16.27;70.20;100532.38;1788581;79;20999;-63
2021/09/13 03:51:38;;;;;;;35.52;16.23;;;;;;;16.23;70.66;100533.05;1783945;79;20989;-61
2021/09/13 03:54:05;;;;;;;28.85;16.87;;;;;;;16.24;70.78;100538.84;1792731;79;21028;-63
2021/09/13 03:59:13;;;;;;;28.25;16.45;;;;;;;16.28;70.87;100531.41;1797942;79;21035;-63
2021/09/13 04:01:39;;;;;;;31.85;16.35;;;;;;;16.31;70.83;100536.16;1788967;80;21050;-63
2021/09/13 04:04:07;;;;;;;31.27;16.50;;;;;;;16.33;70.72;100535.58;1789602;79;21216;-62
2021/09/13 04:06:47;;;;;;;33.35;16.93;;;;;;;16.33;70.66;100538.28;1789798;79;21569;-62
2021/09/13 04:12:06;;;;;;;37.60;16.75;;;;;;;16.40;70.55;100540.59;1777933;79;21166;-63
2021/09/13 04:23:26;;;;;;;30.82;17.48;;;;;;;16.58;70.24;100550.26;1692388;83;21025;-56
2021/09/13 04:26:11;;;;;;;29.72;17.35;;;;;;;16.66;70.12;100557.01;1761428;79;22261;-57
2021/09/13 04:39:59;;;;;;;33.58;16.62;;;;;;;17.12;69.34;100558.12;1756595;80;20997;-57
2021/09/13 04:42:42;;;;;;;31.90;16.17;;;;;;;17.21;68.99;100558.50;1715611;81;24585;-62
2021/09/13 04:48:28;;;;;;;29.35;16.70;;;;;;;17.36;68.50;100558.84;1759305;80;21012;-63
2021/09/13 04:51:27;;;;;;;31.82;16.35;;;;;;;17.43;68.26;100566.05;1720071;82;21100;-56
2021/09/13 04:54:01;;;;;;;33.28;16.90;;;;;;;17.47;68.06;100567.11;1771465;78;21535;-56
2021/09/13 04:56:29;;;;;;;37.38;16.95;;;;;;;17.54;67.88;100569.40;1780736;79;21068;-63
2021/09/13 05:01:35;;;;;;;37.75;22.17;;;;;;;17.73;67.49;100575.31;1786651;78;21028;-56
2021/09/13 05:04:06;;;;;;;36.10;20.12;;;;;;;17.85;67.17;100578.17;1791043;78;21008;-63
2021/09/13 05:06:33;;;;;;;54.13;23.57;;;;;;;17.98;66.84;100566.84;1785564;78;21128;-62
2021/09/13 05:09:01;;;;;;;35.15;22.15;;;;;;;18.15;66.47;100569.80;1770682;78;20980;-57
2021/09/13 05:11:42;;;;;;;37.55;22.48;;;;;;;18.40;65.46;100570.77;1771305;78;21012;-63
2021/09/13 05:22:12;;;;;;;42.20;21.45;;;;;;;18.85;63.25;100570.77;1795560;79;21020;-56
2021/09/13 05:24:39;;;;;;;43.23;19.42;;;;;;;18.88;62.93;100570.04;1790006;78;21485;-63
2021/09/13 05:27:07;;;;;;;33.18;17.65;;;;;;;18.93;62.83;100561.56;1806098;78;21036;-63
2021/09/13 05:29:36;;;;;;;47.98;20.50;;;;;;;18.97;62.52;100569.86;1797961;78;21063;-61
2021/09/13 05:32:08;;;;;;;42.98;19.15;;;;;;;19.01;62.45;100565.99;1795698;78;21206;-63
2021/09/13 05:34:35;;;;;;;43.15;20.12;;;;;;;19.11;62.39;100564.79;1791359;78;21256;-63
2021/09/13 05:37:04;;;;;;;40.70;19.32;;;;;;;19.20;61.95;100565.11;1790057;79;21501;-63
2021/09/13 05:39:31;;;;;;;38.73;18.92;;;;;;;19.28;61.78;100569.47;1792327;78;21068;-57
2021/09/13 05:42:01;;;;;;;43.55;19.25;;;;;;;19.40;61.60;100572.64;1786056;78;21102;-57
2021/09/13 05:44:48;;;;;;;35.15;17.62;;;;;;;19.52;61.13;100565.41;1781746;78;21131;-57
2021/09/13 05:47:16;;;;;;;54.63;20.00;;;;;;;19.65;60.71;100570.77;1794081;79;21052;-58
2021/09/13 05:49:59;;;;;;;39.23;18.98;;;;;;;19.80;60.70;100575.52;1780880;78;20988;-57
2021/09/13 05:52:39;;;;;;;39.95;18.62;;;;;;;19.97;60.38;100581.04;1781487;78;21119;-57
2021/09/13 05:55:10;;;;;;;41.37;19.45;;;;;;;20.20;59.29;100579.73;1781091;79;21060;-56
2021/09/13 05:57:40;;;;;;;45.67;20.57;;;;;;;20.26;58.86;100586.08;1753233;80;21083;-64
2021/09/13 06:00:10;;;;;;;47.53;21.27;;;;;;;20.36;58.99;100583.98;1785132;79;21095;-63
2021/09/13 06:02:39;;;;;;;44.38;20.55;;;;;;;20.50;58.69;100585.60;1788707;79;21091;-58
2021/09/13 06:05:11;;;;;;;40.98;20.08;;;;;;;20.69;58.27;100587.73;1680701;83;21162;-58
2021/09/13 06:15:32;;;;;;;50.30;25.15;;;;;;;21.37;56.58;100590.88;1789759;78;21521;-63
2021/09/13 06:18:02;;;;;;;51.35;21.65;;;;;;;21.52;56.35;100592.33;1781978;78;21111;-56
2021/09/13 06:20:32;;;;;;;48.28;20.90;;;;;;;21.73;55.87;100592.39;1762303;79;21052;-58
2021/09/13 06:23:01;;;;;;;38.17;18.75;;;;;;;21.94;55.29;100594.28;1767558;78;22336;-58
2021/09/13 06:28:20;;;;;;;36.63;18.45;;;;;;;22.41;53.93;100598.47;1752610;80;21040;-62
2021/09/13 06:36:06;;;;;;;45.33;19.10;;;;;;;24.20;49.32;100599.66;1757213;79;21092;-58
2021/09/13 06:38:34;;;;;;;47.78;18.15;;;;;;;24.48;48.63;100602.50;1754131;80;22296;-58
2021/09/13 06:44:06;;;;;;;49.20;20.50;;;;;;;25.62;46.54;100612.00;1795319;78;21051;-58
2021/09/13 06:46:41;;;;;;;47.93;20.55;;;;;;;26.07;44.88;100615.69;1794953;78;21608;-57
2021/09/13 06:49:06;;;;;;;52.25;18.25;;;;;;;26.09;44.59;100619.13;1794504;78;21123;-57
2021/09/13 06:54:17;;;;;;;51.83;17.02;;;;;;;25.78;43.33;100626.42;1797327;78;21047;-62
2021/09/13 06:56:45;;;;;;;49.25;16.85;;;;;;;25.56;43.46;100624.48;1791005;78;22174;-63
2021/09/13 06:59:15;;;;;;;51.80;16.45;;;;;;;25.42;43.88;100633.56;1798103;78;21094;-62
2021/09/13 07:01:49;;;;;;;41.42;15.58;;;;;;;25.28;44.08;100621.72;1789314;78;21138;-63
2021/09/13 07:04:29;;;;;;;49.38;16.77;;;;;;;25.21;44.40;100628.84;1804524;78;21464;-57
2021/09/13 07:06:53;;;;;;;64.50;16.40;;;;;;;25.18;44.52;100630.88;1799371;78;21012;-58
2021/09/13 07:09:20;;;;;;;56.50;16.42;;;;;;;25.16;44.74;100634.29;1798966;78;21071;-57
2021/09/13 07:12:07;;;;;;;48.38;16.02;;;;;;;25.16;44.86;100635.66;1791977;78;21553;-57
2021/09/13 07:14:35;;;;;;;41.90;15.45;;;;;;;25.18;45.05;100636.37;1793335;78;21903;-62
2021/09/13 07:17:03;;;;;;;49.08;16.15;;;;;;;25.22;45.21;100632.82;1786830;78;21126;-64
2021/09/13 07:19:57;;;;;;;34.80;15.53;;;;;;;25.27;45.26;100644.69;1798970;78;21071;-63
2021/09/13 07:22:26;;;;;;;37.33;17.17;;;;;;;25.34;45.32;100646.31;1760324;80;21045;-58
2021/09/13 07:25:11;;;;;;;35.48;18.25;;;;;;;25.34;45.81;100649.06;1765250;79;21115;-59
2021/09/13 07:27:47;;;;;;;41.25;19.05;;;;;;;25.33;46.93;100650.95;1723123;81;21134;-58
2021/09/13 07:35:42;;;;;;;30.27;18.20;;;;;;;25.32;47.57;100654.72;1747622;80;20976;-63
2021/09/13 07:38:16;;;;;;;38.48;18.32;;;;;;;25.27;48.32;100651.55;1750074;80;20975;-63
2021/09/13 07:40:43;;;;;;;35.83;18.37;;;;;;;25.18;49.34;100646.45;1749419;80;21910;-63
2021/09/13 07:43:14;;;;;;;31.17;17.17;;;;;;;25.12;49.56;100652.07;1750313;81;21450;-58
2021/09/13 07:45:41;;;;;;;31.30;17.23;;;;;;;25.02;49.28;100653.98;1751541;80;21115;-59
2021/09/13 07:48:22;;;;;;;27.93;16.45;;;;;;;24.92;49.48;100655.91;1708365;81;21459;-59
2021/09/13 07:50:51;;;;;;;30.82;17.65;;;;;;;24.83;49.82;100655.78;1728855;81;21126;-64
2021/09/13 07:53:24;;;;;;;44.73;28.87;;;;;;;24.74;49.82;100656.66;1733988;81;21194;-63
2021/09/13 07:58:41;;;;;;;31.33;17.52;;;;;;;24.53;50.24;100660.95;1760676;80;21016;-63
2021/09/13 08:01:24;;;;;;;35.90;16.65;;;;;;;24.42;50.31;100668.33;1764749;80;21504;-63
2021/09/13 08:06:40;;;;;;;31.65;15.55;;;;;;;24.37;50.11;100668.41;1753396;80;21809;-63
2021/09/13 08:09:19;;;;;;;31.75;15.72;;;;;;;24.33;49.71;100662.38;1774948;80;21016;-62
2021/09/13 08:11:54;;;;;;;28.60;15.65;;;;;;;24.35;50.41;100671.31;1744068;81;21989;-59
2021/09/13 08:14:21;;;;;;;32.13;16.67;;;;;;;24.35;50.52;100671.80;1734305;81;21689;-58
2021/09/13 08:16:51;;;;;;;31.35;16.50;;;;;;;24.26;50.65;100670.30;1733786;81;21080;-62
2021/09/13 08:19:19;;;;;;;33.67;15.65;;;;;;;24.18;51.66;100666.92;1733109;81;21824;-65
2021/09/13 08:21:46;;;;;;;38.55;16.62;;;;;;;24.15;51.75;100667.70;1766423;80;21036;-64
2021/09/13 08:34:32;;;;;;;32.63;17.27;;;;;;;23.93;52.20;100662.84;1721258;82;21008;-63
2021/09/13 08:37:02;;;;;;;28.30;16.45;;;;;;;23.89;53.07;100666.88;1726411;81;21446;-64
2021/09/13 08:39:30;;;;;;;34.67;17.55;;;;;;;23.85;53.76;100666.81;1733404;81;21203;-64
2021/09/13 08:41:57;;;;;;;31.93;17.32;;;;;;;23.85;53.75;100668.18;1754655;80;21413;-64
2021/09/13 08:44:25;;;;;;;30.75;16.77;;;;;;;23.86;53.50;100665.80;1761156;80;21480;-64
2021/09/13 08:47:00;;;;;;;30.68;16.65;;;;;;;23.88;53.93;100662.41;1747720;80;21123;-61
2021/09/13 08:49:39;;;;;;;29.75;15.72;;;;;;;23.95;54.13;100673.66;1741422;80;21628;-59
2021/09/13 09:00:20;;;;;;;31.35;16.85;;;;;;;24.05;54.10;100672.33;1781977;78;21798;-63
2021/09/13 09:05:22;;;;;;;26.60;16.77;;;;;;;24.14;54.56;100668.71;1778159;78;21755;-63
2021/09/13 09:10:57;;;;;;;36.75;19.00;;;;;;;24.36;54.54;100665.31;1782317;78;21450;-64
2021/09/13 09:13:26;;;;;;;42.90;19.77;;;;;;;24.43;55.49;100666.48;1776008;78;21573;-65
2021/09/13 09:16:17;;;;;;;33.83;19.30;;;;;;;24.49;56.39;100669.98;1780532;78;21237;-63
2021/09/13 09:19:12;;;;;;;34.08;18.85;;;;;;;24.49;56.65;100663.14;1787581;78;21099;-64
2021/09/13 09:21:43;;;;;;;30.62;16.85;;;;;;;24.50;57.49;100671.72;1761873;80;21425;-64
2021/09/13 09:24:14;;;;;;;27.87;16.87;;;;;;;24.49;57.64;100663.14;1780565;80;21798;-64
2021/09/13 09:26:41;;;;;;;28.77;16.40;;;;;;;24.44;57.64;100659.98;1779445;78;21762;-58
2021/09/13 09:32:06;;;;;;;32.38;16.45;;;;;;;24.31;58.82;100657.52;1775990;79;21018;-64
2021/09/13 09:34:35;;;;;;;30.57;15.83;;;;;;;24.28;59.57;100666.91;1774840;79;21621;-63
2021/09/13 09:37:07;;;;;;;32.58;15.88;;;;;;;24.29;60.20;100661.80;1769560;79;21145;-64
2021/09/13 09:42:39;;;;;;;30.72;15.15;;;;;;;24.41;60.21;100668.47;1677357;81;21139;-66
2021/09/13 09:45:20;;;;;;;31.35;15.93;;;;;;;24.39;59.71;100660.91;1741492;80;21568;-64
2021/09/13 09:48:05;;;;;;;32.80;15.65;;;;;;;24.33;60.16;100658.27;1745038;80;21139;-64
2021/09/13 09:50:34;;;;;;;28.60;14.95;;;;;;;24.30;60.51;100662.15;1748467;79;21529;-62
2021/09/13 09:53:40;;;;;;;27.75;15.65;;;;;;;24.31;60.91;100663.87;1747872;80;21465;-65
2021/09/13 09:56:12;;;;;;;;;;;;;;;24.33;62.36;100659.64;1749523;80;21028;-62
2021/09/13 10:01:45;;;;;;;23.10;14.38;;;;;;;24.28;64.26;100662.80;1738701;80;21071;-62
2021/09/13 10:04:19;;;;;;;22.07;14.07;;;;;;;24.21;65.05;100663.03;1734438;80;21663;-63
2021/09/13 10:06:58;;;;;;;19.70;13.20;;;;;;;24.17;63.99;100666.56;1734831;80;21063;-62
2021/09/13 10:09:29;;;;;;;19.62;12.95;;;;;;;24.16;63.23;100669.43;1734335;80;21076;-63
2021/09/13 10:12:14;;;;;;;19.77;11.93;;;;;;;24.16;62.24;100666.69;1738036;80;21056;-62
2021/09/13 10:14:42;;;;;;;17.98;11.38;;;;;;;24.16;60.09;100663.95;1739971;80;21092;-62
2021/09/13 10:17:13;;;;;;;22.85;10.93;;;;;;;24.18;59.99;100665.55;1780564;78;22429;-62
2021/09/13 10:19:40;;;;;;;14.00;10.05;;;;;;;24.22;58.08;100664.77;1781729;78;21013;-61
2021/09/13 10:22:10;;;;;;;18.52;9.98;;;;;;;24.23;59.43;100667.86;1757299;79;21091;-62
2021/09/13 10:24:39;;;;;;;13.65;8.95;;;;;;;24.24;59.44;100661.38;1783825;78;21362;-62
2021/09/13 10:27:09;;;;;;;12.78;8.75;;;;;;;24.22;58.43;100660.66;1780890;78;20980;-62
2021/09/13 10:29:40;;;;;;;16.97;8.50;;;;;;;24.20;60.94;100662.64;1777663;78;21868;-61
2021/09/13 10:32:10;;;;;;;13.30;8.55;;;;;;;24.24;63.99;100656.38;1778085;78;21063;-61
2021/09/13 10:34:46;;;;;;;21.25;8.95;;;;;;;24.27;66.21;100658.34;1777727;78;21528;-56
2021/09/13 10:42:43;;;;;;;14.68;7.92;;;;;;;24.26;69.69;100652.50;1760636;79;22205;-63
2021/09/13 10:45:24;;;;;;;22.07;9.10;;;;;;;24.25;71.09;100648.03;1722813;81;21175;-63
2021/09/13 10:48:20;;;;;;;13.45;8.78;;;;;;;24.24;72.28;100650.91;1762686;79;21359;-63
2021/09/13 10:50:56;;;;;;;13.65;9.18;;;;;;;24.20;73.24;100650.32;1759351;79;21080;-63
2021/09/13 11:01:06;;;;;;;14.80;9.30;;;;;;;24.03;76.44;100647.81;1762764;79;22194;-64
2021/09/13 11:03:37;;;;;;;15.75;9.50;;;;;;;24.02;77.14;100643.35;1761603;79;21094;-62
2021/09/13 11:06:13;;;;;;;15.68;9.03;;;;;;;23.98;77.86;100644.10;1766484;79;20924;-63
2021/09/13 11:08:45;;;;;;;13.70;9.60;;;;;;;24.01;78.40;100638.86;1763151;79;21091;-62
2021/09/13 11:11:17;;;;;;;14.38;8.53;;;;;;;24.07;78.53;100639.67;1759593;79;20955;-63
2021/09/13 11:13:52;;;;;;;17.77;9.45;;;;;;;24.15;78.49;100644.42;1722736;81;21100;-63
2021/09/13 11:21:52;;;;;;;11.83;8.65;;;;;;;24.25;77.75;100628.86;1758948;79;22287;-63
2021/09/13 11:24:30;;;;;;;18.87;9.20;;;;;;;24.27;77.36;100630.95;1770655;78;21020;-62
2021/09/13 11:27:04;;;;;;;11.85;9.23;;;;;;;24.21;75.70;100632.91;1770799;78;21033;-62
2021/09/13 11:29:38;;;;;;;14.98;8.70;;;;;;;24.14;76.59;100629.00;1772481;78;21403;-63
2021/09/13 11:32:07;;;;;;;13.43;9.40;;;;;;;24.08;75.95;100629.59;1772231;78;20934;-63
2021/09/13 11:34:39;;;;;;;13.72;9.10;;;;;;;24.00;76.58;100624.31;1772700;78;21087;-61
2021/09/13 11:37:18;;;;;;;12.82;10.48;;;;;;;23.92;77.66;100623.30;1774592;78;21031;-63
2021/09/13 11:39:52;;;;;;;14.25;8.78;;;;;;;23.87;78.42;100621.88;1775782;78;20896;-63
2021/09/13 11:42:35;;;;;;;13.65;8.55;;;;;;;23.84;78.60;100615.81;1703322;81;21564;-63
2021/09/13 11:45:12;;;;;;;14.23;9.48;;;;;;;23.81;79.17;100614.73;1776931;78;20953;-62
2021/09/13 11:47:40;;;;;;;17.37;9.95;;;;;;;23.77;80.00;100607.83;1778827;79;21113;-63
2021/09/13 11:50:09;;;;;;;17.02;9.70;;;;;;;23.80;80.38;100614.38;1769261;79;21507;-61
2021/09/13 11:52:38;;;;;;;18.85;9.33;;;;;;;23.80;80.69;100612.48;1769449;79;21047;-63
2021/09/13 11:55:16;;;;;;;17.67;9.55;;;;;;;23.84;80.94;100611.70;1794525;78;21040;-63
2021/09/13 12:05:59;;;;;;;18.23;8.30;;;;;;;23.84;80.96;100611.70;1762360;81;21444;-91
2021/09/13 12:08:28;;;;;;;10.35;8.00;;;;;;;23.81;81.30;100602.41;1735873;81;20991;-91
2021/09/13 12:11:04;;;;;;;12.03;8.50;;;;;;;23.78;81.18;100600.82;1750552;81;21390;-92
2021/09/13 12:13:29;;;;;;;14.93;8.23;;;;;;;23.73;81.36;100604.50;1744513;81;20928;-91
2021/09/13 12:15:57;;;;;;;15.35;8.13;;;;;;;23.66;81.64;100591.89;1746563;80;20960;-90
2021/09/13 12:18:39;;;;;;;13.78;7.47;;;;;;;23.63;81.34;100594.91;1746454;80;21145;-92
2021/09/13 12:21:12;;;;;;;11.80;8.38;;;;;;;23.60;81.45;100591.95;1746708;80;21044;-87
2021/09/13 12:23:45;;;;;;;;;;;;;;;23.58;81.50;100595.86;1738773;81;20976;-93
2021/09/13 12:26:28;;;;;;;;;;;;;;;;;;;;;
2021/09/13 12:28:48;;;;;;;14.87;8.28;;;;;;;23.51;82.27;100593.30;1726871;81;22861;-90
2021/09/13 12:31:22;;;;;;;12.13;8.08;;;;;;;23.52;82.91;100600.50;1745951;80;21072;-87
2021/09/13 12:33:51;;;;;;;14.00;8.30;;;;;;;23.53;82.97;100592.17;1744403;80;21067;-88
2021/09/13 12:36:24;;;;;;;12.20;8.30;;;;;;;23.53;83.25;100585.81;1740669;81;21102;-87
2021/09/13 12:38:57;;;;;;;12.63;8.13;;;;;;;23.52;83.22;100589.07;1720860;82;21300;-87
2021/09/13 12:41:35;;;;;;;137.00;106.90;;;;;;;23.51;83.30;100583.73;1737925;82;22044;-87
2021/09/13 12:44:40;;;;;;;;;;;;;;;;;;;;;
2021/09/13 13:03:30;;;;;;;10.93;6.80;;;;;;;23.39;84.99;100571.56;1584740;89;21103;-92
2021/09/13 13:11:58;;;;;;;13.15;6.50;;;;;;;23.44;81.82;100569.27;1612636;86;21146;-92
2021/09/13 13:30:51;;;;;;;;;;;;;;;;;;;;;
2021/09/13 13:33:20;;;;;;;15.20;7.72;;;;;;;23.44;82.95;100563.79;1521963;90;21074;-92
2021/09/13 13:47:19;;;;;;;13.78;6.85;;;;;;;23.49;80.96;100568.84;1661613;84;21118;-92
2021/09/13 13:52:35;;;;;;;14.25;7.08;;;;;;;23.42;82.02;100568.55;1726999;83;21119;-91
2021/09/13 13:58:30;;;;;;;14.78;6.87;;;;;;;23.41;82.86;100563.20;1721221;82;20987;-95
2021/09/13 14:00:56;;;;;;;11.18;6.72;;;;;;;23.43;81.48;100563.92;1730172;81;20846;-94
2021/09/13 14:04:04;;;;;;;11.97;6.80;;;;;;;23.42;78.80;100564.92;1700034;82;21113;-93
2021/09/13 14:06:33;;;;;;;14.45;6.92;;;;;;;23.43;78.09;100573.01;1696056;82;20966;-92
2021/09/13 14:10:03;;;;;;;9.95;6.97;;;;;;;23.44;77.52;100566.53;1719594;83;20981;-89
2021/09/13 14:12:33;;;;;;;17.32;7.30;;;;;;;23.42;76.87;100568.55;1701133;82;21044;-91
2021/09/13 14:15:08;;;;;;;14.98;7.20;;;;;;;23.43;77.41;100566.17;1762818;80;20988;-93
2021/09/13 14:17:36;;;;;;;14.35;6.87;;;;;;;23.42;77.79;100565.80;1763115;81;20879;-92
2021/09/13 14:20:05;;;;;;;13.10;6.83;;;;;;;23.43;77.80;100560.70;1762342;80;20965;-93
2021/09/13 14:26:33;;;;;;;13.53;6.55;;;;;;;23.46;77.66;100560.41;1760702;81;20970;-88
2021/09/13 14:29:02;;;;;;;13.50;6.65;;;;;;;23.44;78.47;100552.84;1759785;81;21430;-90
2021/09/13 14:31:41;;;;;;;;;;;;;;;;;;;;;
2021/09/13 14:34:02;;;;;;;15.03;6.30;;;;;;;23.37;79.35;100553.56;1754814;81;21036;-91
2021/09/13 14:36:30;;;;;;;9.03;6.37;;;;;;;23.31;79.52;100555.86;1755211;81;21450;-91
2021/09/13 14:38:57;;;;;;;15.35;6.10;;;;;;;23.28;80.40;100555.27;1759631;80;21065;-91
2021/09/13 14:41:25;;;;;;;15.93;5.87;;;;;;;23.24;80.90;100554.68;1759616;81;21041;-91
2021/09/13 14:43:52;;;;;;;10.80;5.95;;;;;;;23.21;81.02;100549.98;1759604;81;21053;-92
2021/09/13 14:46:19;;;;;;;15.80;5.85;;;;;;;23.16;80.93;100556.75;1748234;80;21068;-91
2021/09/13 14:48:47;;;;;;;12.25;6.20;;;;;;;23.12;80.52;100556.67;1759035;81;21065;-93
2021/09/13 14:51:30;;;;;;;;;;;;;;;;;;;;;
2021/09/13 14:54:03;;;;;;;35.17;21.30;;;;;;;23.09;80.92;100554.71;1701699;81;21014;-94
2021/09/13 14:56:36;;;;;;;14.18;8.43;;;;;;;23.07;81.40;100560.83;1724897;81;21085;-93
2021/09/13 14:59:22;;;;;;;12.55;5.70;;;;;;;23.03;82.28;100565.70;1747476;81;21105;-93
2021/09/13 15:08:39;;;;;;;14.15;5.60;;;;;;;22.95;83.05;100557.34;1759381;81;21036;-92
2021/09/13 15:11:07;;;;;;;11.08;5.03;;;;;;;22.83;82.60;100550.60;1759361;81;21146;-91
2021/09/13 15:13:34;;;;;;;11.68;4.92;;;;;;;22.79;80.75;100555.98;1750980;80;21125;-93
2021/09/13 15:20:02;;;;;;;10.60;6.70;;;;;;;22.70;77.68;100548.11;1741366;82;21088;-91
2021/09/13 15:22:45;;;;;;;13.85;5.53;;;;;;;22.64;75.35;100554.63;1741996;81;21001;-91
2021/09/13 15:25:16;;;;;;;12.13;5.50;;;;;;;22.58;74.69;100555.55;1707028;83;26944;-92
2021/09/13 15:27:43;;;;;;;10.28;5.53;;;;;;;22.55;73.46;100553.61;1693500;84;21122;-92
2021/09/13 15:30:16;;;;;;;10.28;5.03;;;;;;;22.49;72.31;100560.48;1674294;84;21476;-92
2021/09/13 15:33:00;;;;;;;12.93;5.12;;;;;;;22.46;71.16;100554.77;1693642;84;21070;-94
2021/09/13 15:35:32;;;;;;;13.32;5.47;;;;;;;22.43;70.77;100556.38;1672115;83;21019;-94
2021/09/13 15:38:03;;;;;;;7.55;4.80;;;;;;;22.40;70.64;100555.78;1695185;84;21566;-94
2021/09/13 15:45:15;;;;;;;10.53;4.37;;;;;;;22.32;71.48;100560.06;1667059;86;20960;-94
2021/09/13 15:47:52;;;;;;;10.82;4.80;;;;;;;22.27;71.84;100569.16;1667882;85;20928;-93
2021/09/13 15:50:33;;;;;;;8.75;4.72;;;;;;;22.24;71.94;100583.58;1642606;86;21168;-90
2021/09/13 15:53:02;;;;;;;12.40;4.17;;;;;;;22.23;72.15;100580.48;1618841;86;21076;-91
2021/09/13 15:55:30;;;;;;;17.10;4.87;;;;;;;22.21;72.43;100573.78;1660071;85;21143;-90
2021/09/13 15:58:07;;;;;;;13.22;5.33;;;;;;;22.18;72.83;100576.78;1669685;84;21044;-90
2021/09/13 16:00:34;;;;;;;11.22;4.75;;;;;;;22.18;73.41;100584.97;1670926;85;21112;-92
2021/09/13 16:03:03;;;;;;;9.70;4.70;;;;;;;22.12;73.82;100586.39;1671570;84;21142;-93
2021/09/13 16:05:30;;;;;;;9.48;4.67;;;;;;;22.11;74.01;100586.52;1660870;83;21480;-90
2021/09/13 16:10:45;;;;;;;9.95;4.55;;;;;;;22.09;74.25;100588.52;1664111;85;21093;-91
2021/09/13 16:15:44;;;;;;;19.65;6.62;;;;;;;22.00;73.35;100581.50;1709708;83;20921;-90